Time;durP1;ratioP1;P1;durP2;ratioP2;P2;SDS_P1;SDS_P2;PMS_P1;PMS_P2;Temp;Humidity;BMP_temperature;BMP_pressure;BME280_temperature;BME280_humidity;BME280_pressure;Samples;Min_cycle;Max_cycle;Signal;HPM_P1;HPM_P2
2021/11/04 00:01:28;;;;;;;7.60;6.25;;;8.90;74.80;;;;;;4967714;28;20047;-78
2021/11/04 00:03:54;;;;;;;6.88;6.32;;;8.90;74.80;;;;;;4966156;28;20027;-78
2021/11/04 00:06:20;;;;;;;5.68;5.28;;;8.90;74.90;;;;;;4968730;28;20041;-78
2021/11/04 00:08:46;;;;;;;5.60;5.30;;;8.90;74.90;;;;;;4970880;28;20031;-78
2021/11/04 00:11:12;;;;;;;5.68;5.38;;;8.90;74.90;;;;;;4966553;28;20484;-78
2021/11/04 00:13:38;;;;;;;6.43;5.93;;;8.90;74.90;;;;;;4966555;28;20027;-78
2021/11/04 00:16:08;;;;;;;7.60;6.57;;;8.80;74.90;;;;;;4969051;28;20538;-78
2021/11/04 00:18:34;;;;;;;5.43;5.13;;;8.80;74.90;;;;;;4968777;28;20022;-78
2021/11/04 00:21:00;;;;;;;5.28;4.88;;;8.80;75.00;;;;;;4973135;28;20039;-78
2021/11/04 00:23:27;;;;;;;5.25;4.93;;;8.80;75.10;;;;;;4971046;28;20495;-78
2021/11/04 00:25:53;;;;;;;5.20;4.90;;;8.80;75.10;;;;;;4970265;28;20528;-78
2021/11/04 00:28:19;;;;;;;5.43;5.13;;;8.70;75.00;;;;;;4972292;28;20491;-78
2021/11/04 00:30:45;;;;;;;5.55;5.25;;;8.70;75.00;;;;;;4969045;28;20064;-78
2021/11/04 00:33:11;;;;;;;6.38;5.90;;;8.70;75.10;;;;;;4971761;28;20039;-78
2021/11/04 00:35:37;;;;;;;6.43;6.05;;;8.70;75.10;;;;;;4971340;28;20054;-78
2021/11/04 00:38:04;;;;;;;5.63;5.30;;;8.70;75.90;;;;;;4970896;28;20038;-78
2021/11/04 00:40:30;;;;;;;6.50;6.00;;;8.70;75.10;;;;;;4951125;28;20062;-78
2021/11/04 00:42:56;;;;;;;5.03;4.72;;;8.70;75.10;;;;;;4962082;28;20049;-78
2021/11/04 00:45:22;;;;;;;5.50;5.03;;;8.70;75.10;;;;;;4969994;28;20045;-78
2021/11/04 00:47:49;;;;;;;4.80;4.60;;;8.60;75.10;;;;;;4972389;28;20387;-78
2021/11/04 00:50:16;;;;;;;5.32;4.57;;;8.60;75.10;;;;;;4973515;28;20050;-78
2021/11/04 00:52:42;;;;;;;5.00;4.80;;;8.60;75.10;;;;;;4969392;28;20037;-78
2021/11/04 00:55:09;;;;;;;5.25;4.95;;;8.60;75.10;;;;;;4955446;28;20381;-78
2021/11/04 00:57:35;;;;;;;7.43;6.68;;;8.60;75.10;;;;;;4969956;28;20043;-78
2021/11/04 01:00:03;;;;;;;5.47;5.07;;;8.50;75.10;;;;;;4973529;28;20046;-78
2021/11/04 01:02:30;;;;;;;5.53;5.15;;;8.50;75.20;;;;;;4986190;28;20038;-78
2021/11/04 01:04:56;;;;;;;5.40;5.00;;;8.50;75.30;;;;;;4970867;28;20030;-78
2021/11/04 01:07:22;;;;;;;5.13;4.82;;;8.50;75.40;;;;;;4971429;28;20411;-78
2021/11/04 01:09:48;;;;;;;4.95;4.65;;;8.40;75.20;;;;;;4971467;28;20039;-78
2021/11/04 01:12:14;;;;;;;5.60;5.20;;;8.50;75.40;;;;;;4971483;28;20467;-78
2021/11/04 01:14:40;;;;;;;4.90;4.60;;;8.40;75.30;;;;;;4988236;28;20031;-78
2021/11/04 01:17:06;;;;;;;5.32;5.03;;;8.40;75.30;;;;;;4965832;28;20396;-78
2021/11/04 01:19:32;;;;;;;5.38;4.97;;;8.40;75.40;;;;;;4969708;28;20030;-78
2021/11/04 01:21:58;;;;;;;4.13;3.92;;;8.40;75.30;;;;;;4968878;28;20042;-78
2021/11/04 01:24:24;;;;;;;5.03;4.72;;;8.40;75.40;;;;;;4954012;28;20031;-78
2021/11/04 01:26:50;;;;;;;4.70;4.43;;;8.40;75.30;;;;;;4972470;28;20031;-78
2021/11/04 01:29:17;;;;;;;4.60;4.20;;;8.40;75.40;;;;;;4971934;28;20388;-78
2021/11/04 01:31:43;;;;;;;4.93;4.53;;;8.40;75.40;;;;;;4968455;28;20421;-78
2021/11/04 01:34:09;;;;;;;4.07;3.88;;;8.30;75.30;;;;;;4969499;28;20113;-78
2021/11/04 01:36:35;;;;;;;4.80;4.50;;;8.30;75.30;;;;;;4971417;28;20036;-78
2021/11/04 01:39:01;;;;;;;4.40;4.20;;;8.30;75.30;;;;;;4973089;28;20030;-78
2021/11/04 01:41:27;;;;;;;4.13;3.92;;;8.30;75.30;;;;;;4971439;28;20046;-78
2021/11/04 01:43:53;;;;;;;4.60;4.30;;;8.30;75.30;;;;;;4970288;28;20420;-78
2021/11/04 01:46:22;;;;;;;4.40;4.20;;;8.30;75.30;;;;;;4968596;28;20038;-78
2021/11/04 01:48:49;;;;;;;4.78;4.53;;;8.30;75.30;;;;;;4969329;28;20502;-78
2021/11/04 01:51:16;;;;;;;4.25;4.05;;;8.30;75.30;;;;;;4954159;28;20047;-78
2021/11/04 01:53:43;;;;;;;3.97;3.78;;;8.30;75.40;;;;;;4972615;28;20038;-78
2021/11/04 01:56:09;;;;;;;4.10;3.90;;;8.30;75.40;;;;;;4965628;28;20091;-78
2021/11/04 01:58:35;;;;;;;4.85;4.55;;;8.20;75.40;;;;;;4969559;28;20039;-78
2021/11/04 02:01:01;;;;;;;3.90;3.70;;;8.30;75.40;;;;;;4970221;28;20042;-78
2021/11/04 02:03:36;;;;;;;4.97;4.60;;;8.20;75.40;;;;;;4968907;28;20031;-78
2021/11/04 02:06:29;;;;;;;4.80;4.45;;;8.20;75.40;;;;;;4971670;28;20039;-78
2021/11/04 02:09:08;;;;;;;4.63;4.32;;;8.20;75.40;;;;;;4988563;28;20034;-78
2021/11/04 02:11:48;;;;;;;4.25;4.03;;;8.20;75.40;;;;;;4972137;28;20186;-78
2021/11/04 02:14:17;;;;;;;5.88;5.43;;;8.20;75.50;;;;;;4970800;28;20042;-78
2021/11/04 02:16:44;;;;;;;5.18;4.70;;;8.10;75.40;;;;;;4969261;28;20244;-78
2021/11/04 02:19:42;;;;;;;4.53;4.28;;;8.10;75.50;;;;;;4968445;28;20050;-78
2021/11/04 02:22:27;;;;;;;5.20;4.30;;;8.10;75.50;;;;;;4968300;28;20049;-78
2021/11/04 02:25:22;;;;;;;4.60;4.30;;;8.10;75.60;;;;;;4970619;28;20038;-78
2021/11/04 02:27:52;;;;;;;4.35;4.05;;;8.10;75.50;;;;;;4968242;28;20042;-78
2021/11/04 02:30:20;;;;;;;5.10;4.72;;;8.10;75.50;;;;;;4953742;28;20037;-78
2021/11/04 02:32:46;;;;;;;4.82;4.53;;;8.10;75.60;;;;;;4969973;28;20385;-78
2021/11/04 02:35:13;;;;;;;5.13;4.72;;;8.00;75.50;;;;;;4967954;28;20042;-78
2021/11/04 02:37:39;;;;;;;4.35;4.05;;;8.00;75.50;;;;;;4969271;28;20387;-78
2021/11/04 02:40:07;;;;;;;4.38;4.03;;;8.00;75.50;;;;;;4952836;28;20035;-78
2021/11/04 02:42:33;;;;;;;3.55;3.35;;;8.00;75.60;;;;;;4968096;28;20046;-78
2021/11/04 02:45:00;;;;;;;5.07;4.68;;;8.00;75.60;;;;;;4972218;28;20089;-78
2021/11/04 02:47:26;;;;;;;7.65;3.97;;;8.00;75.60;;;;;;4968895;28;20037;-78
2021/11/04 02:49:52;;;;;;;3.67;3.47;;;7.90;75.60;;;;;;4949751;28;20062;-78
2021/11/04 02:52:18;;;;;;;4.00;3.80;;;7.90;75.60;;;;;;4970182;28;20030;-78
2021/11/04 02:54:51;;;;;;;4.25;3.90;;;7.90;76.50;;;;;;4969465;28;20034;-78
2021/11/04 02:57:17;;;;;;;5.43;5.00;;;7.90;75.70;;;;;;4979122;28;20035;-78
2021/11/04 02:59:43;;;;;;;4.35;4.15;;;8.00;75.70;;;;;;4984353;28;20034;-78
2021/11/04 03:02:09;;;;;;;3.90;3.70;;;7.90;75.60;;;;;;4968108;28;20046;-78
2021/11/04 03:04:35;;;;;;;4.43;4.15;;;7.90;75.70;;;;;;4963432;28;20392;-78
2021/11/04 03:07:02;;;;;;;4.43;4.13;;;7.90;75.70;;;;;;4962976;28;20034;-78
2021/11/04 03:09:28;;;;;;;3.78;3.58;;;7.90;75.70;;;;;;4967809;28;20027;-78
2021/11/04 03:11:54;;;;;;;4.47;4.15;;;7.80;75.60;;;;;;4968361;28;20361;-78
2021/11/04 03:14:20;;;;;;;5.93;4.85;;;7.90;75.70;;;;;;4969199;28;20030;-78
2021/11/04 03:16:47;;;;;;;4.75;4.35;;;7.90;75.70;;;;;;4967797;28;20507;-78
2021/11/04 03:19:14;;;;;;;4.55;4.15;;;7.80;75.70;;;;;;4965948;28;20037;-78
2021/11/04 03:21:44;;;;;;;7.35;4.35;;;7.80;75.60;;;;;;4966383;28;20043;-78
2021/11/04 03:24:11;;;;;;;6.07;5.57;;;7.80;75.70;;;;;;4966903;28;20043;-78
2021/11/04 03:26:40;;;;;;;8.30;5.10;;;7.80;75.70;;;;;;4969490;28;20487;-78
2021/11/04 03:29:07;;;;;;;4.22;4.03;;;7.80;75.80;;;;;;4966408;28;20392;-79
2021/11/04 03:31:33;;;;;;;3.40;3.20;;;7.70;75.80;;;;;;4951266;28;20480;-78
2021/11/04 03:33:59;;;;;;;5.63;5.05;;;7.70;75.80;;;;;;4966353;28;20031;-78
2021/11/04 03:36:25;;;;;;;3.28;3.17;;;7.70;75.80;;;;;;4967991;28;20031;-79
2021/11/04 03:38:52;;;;;;;3.90;3.70;;;7.70;75.90;;;;;;4971161;28;20102;-78
2021/11/04 03:41:18;;;;;;;3.65;3.45;;;7.70;76.20;;;;;;4981399;28;20043;-78
2021/11/04 03:43:45;;;;;;;3.95;3.75;;;7.70;75.90;;;;;;4965744;28;20044;-78
2021/11/04 03:46:11;;;;;;;3.50;3.30;;;7.70;75.90;;;;;;4966103;28;20053;-78
2021/11/04 03:48:37;;;;;;;4.53;4.22;;;7.70;75.90;;;;;;4968705;28;20094;-78
2021/11/04 03:51:03;;;;;;;3.90;3.70;;;7.70;75.90;;;;;;4970797;28;20042;-78
2021/11/04 03:53:29;;;;;;;3.45;3.33;;;7.60;75.80;;;;;;4969435;28;20440;-79
2021/11/04 03:55:55;;;;;;;3.70;3.50;;;7.60;75.80;;;;;;4973577;28;20472;-78
2021/11/04 03:58:22;;;;;;;4.15;3.85;;;7.60;75.80;;;;;;4971258;28;20030;-78
2021/11/04 04:00:48;;;;;;;3.60;3.40;;;7.60;75.90;;;;;;4957133;28;20039;-78
2021/11/04 04:03:14;;;;;;;3.80;3.60;;;7.60;75.90;;;;;;4959692;28;20031;-78
2021/11/04 04:05:40;;;;;;;3.67;3.47;;;7.60;75.80;;;;;;4971485;28;20038;-78
2021/11/04 04:08:06;;;;;;;3.60;3.40;;;7.60;75.80;;;;;;4971066;28;20027;-78
2021/11/04 04:10:32;;;;;;;3.78;3.47;;;7.50;75.80;;;;;;4974082;28;20023;-78
2021/11/04 04:13:01;;;;;;;3.95;3.72;;;7.50;75.80;;;;;;4974292;28;20050;-78
2021/11/04 04:15:28;;;;;;;4.45;4.15;;;7.50;75.90;;;;;;4969805;28;20527;-78
2021/11/04 04:17:54;;;;;;;4.75;4.35;;;7.50;76.00;;;;;;4974629;28;20046;-78
2021/11/04 04:20:21;;;;;;;3.77;3.57;;;7.50;75.90;;;;;;4973210;28;20337;-78
2021/11/04 04:22:47;;;;;;;4.47;4.07;;;7.50;76.00;;;;;;4971040;28;20043;-78
2021/11/04 04:25:13;;;;;;;4.70;4.00;;;7.40;75.90;;;;;;4971657;28;20030;-78
2021/11/04 04:27:39;;;;;;;4.65;4.35;;;7.50;76.00;;;;;;4971039;28;20042;-78
2021/11/04 04:30:05;;;;;;;4.80;4.45;;;7.40;75.90;;;;;;4974065;28;20403;-78
2021/11/04 04:32:31;;;;;;;5.85;5.32;;;7.40;76.00;;;;;;4987864;28;20038;-79
2021/11/04 04:34:57;;;;;;;4.97;4.68;;;7.40;76.00;;;;;;4972541;28;20407;-79
2021/11/04 04:37:24;;;;;;;4.22;4.03;;;7.40;76.00;;;;;;4971838;28;20034;-79
2021/11/04 04:39:50;;;;;;;3.70;3.47;;;7.40;76.00;;;;;;4971407;28;20034;-79
2021/11/04 04:42:16;;;;;;;4.30;4.10;;;7.40;76.00;;;;;;4971013;28;20046;-79
2021/11/04 04:44:42;;;;;;;5.03;4.72;;;7.30;76.00;;;;;;4974004;28;20019;-79
2021/11/04 04:47:08;;;;;;;5.55;5.15;;;7.30;76.00;;;;;;4971490;28;20046;-79
2021/11/04 04:49:34;;;;;;;4.68;4.38;;;7.30;76.10;;;;;;4970793;28;20023;-79
2021/11/04 04:52:00;;;;;;;3.90;3.70;;;7.30;76.10;;;;;;4972098;28;20039;-79
2021/11/04 04:54:26;;;;;;;4.13;3.88;;;7.30;76.10;;;;;;4970703;28;20031;-79
2021/11/04 04:56:53;;;;;;;4.15;3.95;;;7.30;76.10;;;;;;4971144;28;20037;-79
2021/11/04 04:59:19;;;;;;;8.98;3.83;;;7.30;76.10;;;;;;4972017;28;20054;-79
2021/11/04 05:01:45;;;;;;;3.72;3.53;;;7.20;76.00;;;;;;4969605;28;20051;-79
2021/11/04 05:04:11;;;;;;;3.80;3.60;;;7.30;76.10;;;;;;4971498;28;20031;-79
2021/11/04 05:06:37;;;;;;;3.93;3.63;;;7.30;76.10;;;;;;4970693;28;20416;-79
2021/11/04 05:09:03;;;;;;;3.63;3.42;;;7.30;76.10;;;;;;4971974;28;20483;-79
2021/11/04 05:11:29;;;;;;;3.90;3.70;;;7.30;76.10;;;;;;4972286;28;20047;-79
2021/11/04 05:13:55;;;;;;;4.60;4.30;;;7.20;76.10;;;;;;4970322;28;20063;-79
2021/11/04 05:16:21;;;;;;;4.13;3.90;;;7.20;76.10;;;;;;4970219;28;20062;-79
2021/11/04 05:18:47;;;;;;;4.63;4.20;;;7.20;76.10;;;;;;4973718;28;20026;-79
2021/11/04 05:21:13;;;;;;;4.22;3.85;;;7.20;76.20;;;;;;4940725;28;20050;-79
2021/11/04 05:23:39;;;;;;;3.40;3.20;;;7.20;76.20;;;;;;4972600;28;20062;-79
2021/11/04 05:26:05;;;;;;;4.47;4.18;;;7.10;76.20;;;;;;4971831;28;20035;-79
2021/11/04 05:28:32;;;;;;;3.63;3.42;;;7.20;76.30;;;;;;4970463;28;20030;-79
2021/11/04 05:31:00;;;;;;;3.78;3.58;;;7.10;76.20;;;;;;4969880;28;20038;-79
2021/11/04 05:33:26;;;;;;;3.65;3.45;;;7.10;76.30;;;;;;4969642;28;20026;-79
2021/11/04 05:35:52;;;;;;;3.70;3.50;;;7.10;76.30;;;;;;4972978;28;20080;-79
2021/11/04 05:38:18;;;;;;;4.68;4.22;;;7.10;76.20;;;;;;4987269;28;20133;-79
2021/11/04 05:40:44;;;;;;;3.50;3.30;;;7.10;76.30;;;;;;4969689;28;20433;-79
2021/11/04 05:43:10;;;;;;;3.88;3.67;;;7.10;76.20;;;;;;4969936;28;20042;-79
2021/11/04 05:45:36;;;;;;;3.60;3.40;;;7.10;76.20;;;;;;4969835;28;20505;-79
2021/11/04 05:48:03;;;;;;;3.92;3.72;;;7.10;76.20;;;;;;4970487;28;20041;-79
2021/11/04 05:50:29;;;;;;;3.80;3.60;;;7.10;76.20;;;;;;4971243;28;20042;-79
2021/11/04 05:52:55;;;;;;;3.97;3.78;;;7.10;76.10;;;;;;4970211;28;20034;-79
2021/11/04 05:55:21;;;;;;;3.28;3.17;;;7.10;76.10;;;;;;4970762;28;20041;-79
2021/11/04 05:57:47;;;;;;;4.15;3.95;;;7.20;76.20;;;;;;4968241;28;20042;-79
2021/11/04 06:00:14;;;;;;;3.87;3.67;;;7.10;76.10;;;;;;4971354;28;20389;-79
2021/11/04 06:02:40;;;;;;;3.63;3.42;;;7.10;76.10;;;;;;4973038;28;20046;-79
2021/11/04 06:05:06;;;;;;;3.33;3.20;;;7.20;76.10;;;;;;4969655;28;20046;-79
2021/11/04 06:07:32;;;;;;;5.30;4.93;;;7.20;76.10;;;;;;4969660;28;20027;-79
2021/11/04 06:09:58;;;;;;;3.65;3.45;;;7.20;76.10;;;;;;4969639;28;20019;-79
2021/11/04 06:12:24;;;;;;;3.70;3.50;;;7.10;76.10;;;;;;4971407;28;20411;-79
2021/11/04 06:14:50;;;;;;;4.13;3.93;;;7.20;76.10;;;;;;4970253;28;20035;-79
2021/11/04 06:17:16;;;;;;;3.83;3.63;;;7.20;76.20;;;;;;4969414;28;20490;-79
2021/11/04 06:19:43;;;;;;;4.45;3.85;;;7.20;76.10;;;;;;4967710;28;20031;-79
2021/11/04 06:22:09;;;;;;;4.30;4.10;;;7.20;76.20;;;;;;4968847;28;20062;-79
2021/11/04 06:24:35;;;;;;;5.45;3.55;;;7.20;76.10;;;;;;4970900;28;20027;-79
2021/11/04 06:27:01;;;;;;;4.57;4.27;;;7.20;76.10;;;;;;4972312;28;20039;-79
2021/11/04 06:29:27;;;;;;;3.63;3.43;;;7.30;76.10;;;;;;4970410;28;20369;-79
2021/11/04 06:31:53;;;;;;;3.72;3.53;;;7.30;76.10;;;;;;4966767;28;20042;-78
2021/11/04 06:34:19;;;;;;;10.38;3.83;;;7.30;76.10;;;;;;4968740;28;20081;-78
2021/11/04 06:36:45;;;;;;;4.23;3.87;;;7.30;76.00;;;;;;4970154;28;20027;-77
2021/11/04 06:39:11;;;;;;;3.92;3.55;;;7.30;76.00;;;;;;4970437;28;20027;-78
2021/11/04 06:41:37;;;;;;;4.07;3.88;;;7.40;76.10;;;;;;4983336;28;20054;-79
2021/11/04 06:44:03;;;;;;;4.00;3.70;;;7.40;76.10;;;;;;4964022;28;20039;-78
2021/11/04 06:46:30;;;;;;;9.18;3.97;;;7.30;76.00;;;;;;4969746;28;20062;-78
2021/11/04 06:49:07;;;;;;;3.92;3.72;;;7.30;76.00;;;;;;4953996;28;20039;-79
2021/11/04 06:51:38;;;;;;;4.10;3.90;;;7.40;76.10;;;;;;4968259;28;20043;-78
2021/11/04 06:54:04;;;;;;;3.83;3.63;;;7.40;76.00;;;;;;4954333;28;20042;-78
2021/11/04 06:56:38;;;;;;;3.72;3.53;;;7.40;76.00;;;;;;4983444;28;20039;-78
2021/11/04 06:59:04;;;;;;;3.60;3.40;;;7.50;76.00;;;;;;4965762;28;20035;-79
2021/11/04 07:01:30;;;;;;;4.40;4.10;;;7.50;76.00;;;;;;4968037;28;20053;-78
2021/11/04 07:03:57;;;;;;;3.97;3.78;;;7.50;76.00;;;;;;4966778;28;20026;-78
2021/11/04 07:06:26;;;;;;;4.05;3.75;;;7.50;76.00;;;;;;4968693;28;20063;-79
2021/11/04 07:08:54;;;;;;;3.85;3.63;;;7.50;76.00;;;;;;4954307;28;20376;-79
2021/11/04 07:11:21;;;;;;;4.30;4.00;;;7.50;76.00;;;;;;4970868;28;20046;-78
2021/11/04 07:13:49;;;;;;;3.38;3.22;;;7.60;76.10;;;;;;4967743;28;20030;-78
2021/11/04 07:16:15;;;;;;;3.53;3.33;;;7.60;76.00;;;;;;4968552;28;20049;-78
2021/11/04 07:18:41;;;;;;;4.07;3.88;;;7.60;75.90;;;;;;4968456;28;20034;-78
2021/11/04 07:21:23;;;;;;;4.35;4.05;;;7.60;75.90;;;;;;4968378;28;20352;-80
2021/11/04 07:23:57;;;;;;;4.45;4.15;;;7.70;76.00;;;;;;4971069;28;20027;-78
2021/11/04 07:26:28;;;;;;;4.05;3.85;;;7.70;75.90;;;;;;4971174;28;20034;-79
2021/11/04 07:28:55;;;;;;;3.35;3.15;;;7.70;75.90;;;;;;4970032;28;20034;-80
2021/11/04 07:31:21;;;;;;;4.28;4.05;;;7.70;75.90;;;;;;4972941;28;20510;-80
2021/11/04 07:33:48;;;;;;;4.50;4.20;;;7.80;75.90;;;;;;4972934;28;20053;-81
2021/11/04 07:36:14;;;;;;;3.97;3.72;;;7.80;75.90;;;;;;4972839;28;20043;-81
2021/11/04 07:38:40;;;;;;;4.15;3.85;;;7.80;75.90;;;;;;4971634;28;20048;-80
2021/11/04 07:41:07;;;;;;;3.88;3.67;;;7.90;75.90;;;;;;4971211;28;20035;-80
2021/11/04 07:43:33;;;;;;;4.10;3.90;;;7.80;75.80;;;;;;4973412;28;20480;-80
2021/11/04 07:45:59;;;;;;;4.03;3.83;;;7.90;75.80;;;;;;4973242;28;20042;-80
2021/11/04 07:48:25;;;;;;;4.22;4.03;;;7.90;75.80;;;;;;4956237;28;20392;-80
2021/11/04 07:50:52;;;;;;;6.80;4.25;;;8.00;75.80;;;;;;4974722;28;20038;-82
2021/11/04 07:53:18;;;;;;;3.22;3.13;;;8.00;75.70;;;;;;4986558;28;20039;-87
2021/11/04 07:55:44;;;;;;;4.05;3.85;;;8.10;75.80;;;;;;4971574;28;20046;-86
2021/11/04 07:58:10;;;;;;;4.15;3.83;;;8.30;75.70;;;;;;4973001;28;20038;-85
2021/11/04 08:00:36;;;;;;;4.10;3.90;;;8.50;75.50;;;;;;4971359;28;20537;-85
2021/11/04 08:03:02;;;;;;;4.50;4.22;;;8.70;75.40;;;;;;4975197;28;20031;-84
2021/11/04 08:05:28;;;;;;;3.92;3.72;;;8.80;75.10;;;;;;4970127;28;20392;-85
2021/11/04 08:07:55;;;;;;;4.45;4.15;;;9.00;75.00;;;;;;4969752;28;20035;-86
2021/11/04 08:10:21;;;;;;;4.00;3.80;;;9.10;74.90;;;;;;4968530;28;20042;-86
2021/11/04 08:12:47;;;;;;;4.88;4.47;;;9.30;74.80;;;;;;4971213;28;20031;-85
2021/11/04 08:15:13;;;;;;;4.97;4.68;;;9.40;74.80;;;;;;4977188;28;20381;-85
2021/11/04 08:17:39;;;;;;;4.15;3.95;;;9.50;74.70;;;;;;4975511;28;20023;-84
2021/11/04 08:20:07;;;;;;;4.57;4.28;;;9.60;74.70;;;;;;4971701;28;20038;-86
2021/11/04 08:22:33;;;;;;;5.32;5.03;;;9.60;74.70;;;;;;4971210;28;20043;-84
2021/11/04 08:24:59;;;;;;;4.40;4.18;;;9.70;74.70;;;;;;4972242;28;20482;-83
2021/11/04 08:27:25;;;;;;;5.10;4.80;;;9.80;74.80;;;;;;4971528;28;20380;-82
2021/11/04 08:29:52;;;;;;;4.60;4.40;;;9.80;74.70;;;;;;4973839;28;20035;-82
2021/11/04 08:32:19;;;;;;;4.00;3.80;;;9.90;74.70;;;;;;4985390;28;20427;-81
2021/11/04 08:34:45;;;;;;;4.10;3.90;;;9.90;74.70;;;;;;4968514;28;20043;-81
2021/11/04 08:37:11;;;;;;;4.43;4.22;;;9.90;74.70;;;;;;4970582;28;20419;-82
2021/11/04 08:39:38;;;;;;;4.40;4.20;;;10.00;74.80;;;;;;4970993;28;20469;-84
2021/11/04 08:42:04;;;;;;;4.10;3.90;;;10.00;74.80;;;;;;4956852;28;20058;-84
2021/11/04 08:44:30;;;;;;;4.10;3.90;;;10.10;74.90;;;;;;4974270;28;20038;-82
2021/11/04 08:46:56;;;;;;;4.38;4.18;;;10.10;74.90;;;;;;4972045;28;20058;-82
2021/11/04 08:49:23;;;;;;;4.43;4.22;;;10.10;74.90;;;;;;4972776;28;20387;-86
2021/11/04 08:51:53;;;;;;;5.15;4.85;;;10.20;75.00;;;;;;4970675;28;20031;-84
2021/11/04 08:54:20;;;;;;;4.30;4.00;;;10.20;75.00;;;;;;4971539;28;20369;-84
2021/11/04 08:56:46;;;;;;;4.50;4.30;;;10.30;75.00;;;;;;4974080;28;20035;-84
2021/11/04 08:59:12;;;;;;;3.75;3.55;;;10.30;74.80;;;;;;4970151;28;20049;-84
2021/11/04 09:01:39;;;;;;;4.07;3.88;;;10.40;74.90;;;;;;4953365;28;20035;-84
2021/11/04 09:04:05;;;;;;;4.05;3.85;;;10.40;74.90;;;;;;4964145;28;20411;-85
2021/11/04 09:06:31;;;;;;;4.90;4.60;;;10.40;74.90;;;;;;4970527;28;20031;-84
2021/11/04 09:09:01;;;;;;;4.25;4.05;;;10.40;74.90;;;;;;4973262;28;20041;-84
2021/11/04 09:11:28;;;;;;;4.75;4.45;;;10.40;75.00;;;;;;4972045;28;20392;-85
2021/11/04 09:13:55;;;;;;;4.75;4.45;;;10.40;75.00;;;;;;4970512;28;20023;-85
2021/11/04 09:16:25;;;;;;;4.45;4.25;;;10.40;75.10;;;;;;4969776;28;20491;-84
2021/11/04 09:18:51;;;;;;;4.57;4.38;;;10.40;75.20;;;;;;4956592;28;20062;-84
2021/11/04 09:21:17;;;;;;;5.72;4.63;;;10.40;75.20;;;;;;4968198;28;20030;-85
2021/11/04 09:23:43;;;;;;;4.03;3.83;;;10.50;75.20;;;;;;4990132;28;20042;-84
2021/11/04 09:26:09;;;;;;;4.72;4.43;;;10.60;75.20;;;;;;4971635;28;20034;-84
2021/11/04 09:28:36;;;;;;;4.40;4.20;;;10.70;75.00;;;;;;4955974;28;20038;-83
2021/11/04 09:31:02;;;;;;;4.60;4.40;;;10.90;74.90;;;;;;4972086;28;20035;-84
2021/11/04 09:33:28;;;;;;;4.30;4.10;;;11.00;74.80;;;;;;4953252;28;20064;-83
2021/11/04 09:35:54;;;;;;;4.22;4.03;;;11.10;74.70;;;;;;4971842;28;20038;-83
2021/11/04 09:38:20;;;;;;;4.25;4.05;;;11.20;74.70;;;;;;4973601;28;20037;-82
2021/11/04 09:40:46;;;;;;;4.80;4.50;;;11.20;74.50;;;;;;4970614;28;20054;-83
2021/11/04 09:43:13;;;;;;;4.25;4.05;;;11.30;74.50;;;;;;4953311;28;20051;-83
2021/11/04 09:45:39;;;;;;;4.68;4.38;;;11.40;74.40;;;;;;4954684;28;20034;-82
2021/11/04 09:48:05;;;;;;;4.10;3.90;;;11.40;74.30;;;;;;4971087;28;20031;-84
2021/11/04 09:50:31;;;;;;;4.10;3.90;;;11.50;74.40;;;;;;4972505;28;20050;-84
2021/11/04 09:52:57;;;;;;;4.00;3.80;;;11.50;74.40;;;;;;4970970;28;20031;-83
2021/11/04 09:55:28;;;;;;;4.13;3.92;;;11.50;74.40;;;;;;4969607;28;20045;-83
2021/11/04 09:57:56;;;;;;;4.43;4.22;;;11.60;74.40;;;;;;4952362;28;20043;-86
2021/11/04 10:00:30;;;;;;;4.93;4.63;;;11.60;74.30;;;;;;4953071;28;20499;-85
2021/11/04 10:03:07;;;;;;;4.25;4.05;;;11.60;74.30;;;;;;4971833;28;20552;-82
2021/11/04 10:05:46;;;;;;;4.50;4.30;;;11.70;74.30;;;;;;4971320;28;20023;-85
2021/11/04 10:08:14;;;;;;;4.10;3.90;;;11.80;74.30;;;;;;4975639;28;20041;-86
2021/11/04 10:10:42;;;;;;;4.40;4.20;;;11.80;74.20;;;;;;4976553;28;20031;-84
2021/11/04 10:13:09;;;;;;;4.55;4.35;;;11.90;74.10;;;;;;4970788;28;20041;-87
2021/11/04 10:15:40;;;;;;;4.22;4.03;;;12.00;74.00;;;;;;4970863;28;20034;-84
2021/11/04 10:18:13;;;;;;;5.00;4.80;;;12.00;73.90;;;;;;4971045;28;20038;-85
2021/11/04 10:20:39;;;;;;;4.80;4.60;;;12.10;73.80;;;;;;4985154;28;20023;-83
2021/11/04 10:23:12;;;;;;;4.60;4.40;;;12.20;73.80;;;;;;4967679;28;20050;-82
2021/11/04 10:25:39;;;;;;;4.90;4.70;;;12.20;73.70;;;;;;4970514;28;20050;-82
2021/11/04 10:28:27;;;;;;;4.82;4.63;;;12.30;73.60;;;;;;4972331;28;20027;-82
2021/11/04 10:30:53;;;;;;;4.90;4.70;;;12.20;73.50;;;;;;4968546;28;20031;-81
2021/11/04 10:33:37;;;;;;;5.35;5.05;;;12.20;73.50;;;;;;4968486;28;20035;-82
2021/11/04 10:36:03;;;;;;;4.82;4.63;;;12.20;73.60;;;;;;4983581;28;20062;-81
2021/11/04 10:38:51;;;;;;;5.00;4.80;;;12.20;73.60;;;;;;4972208;28;20510;-82
2021/11/04 10:41:34;;;;;;;4.93;4.72;;;12.20;73.70;;;;;;4970620;28;20030;-82
2021/11/04 10:44:26;;;;;;;4.80;4.60;;;12.20;73.60;;;;;;4971557;28;20049;-84
2021/11/04 10:46:54;;;;;;;4.60;4.40;;;12.20;73.70;;;;;;4966668;28;20027;-84
2021/11/04 10:49:23;;;;;;;5.15;4.95;;;12.20;73.60;;;;;;4969341;28;20030;-85
2021/11/04 10:52:00;;;;;;;4.88;4.68;;;12.30;73.60;;;;;;4969633;28;20403;-86
2021/11/04 10:54:26;;;;;;;5.28;4.90;;;12.40;73.50;;;;;;4947602;28;20035;-88
2021/11/04 10:56:53;;;;;;;5.00;4.80;;;12.40;73.30;;;;;;4957599;28;20507;-87
2021/11/04 10:59:21;;;;;;;4.75;4.55;;;12.50;73.30;;;;;;4975073;28;20046;-84
2021/11/04 11:01:52;;;;;;;4.75;4.50;;;12.50;73.20;;;;;;4969138;28;20049;-84
2021/11/04 11:04:38;;;;;;;4.97;4.78;;;12.60;73.20;;;;;;4969930;28;20026;-84
2021/11/04 11:07:04;;;;;;;5.35;5.05;;;12.60;73.00;;;;;;4968644;28;20038;-85
2021/11/04 11:09:33;;;;;;;5.00;4.70;;;12.70;73.00;;;;;;4968805;28;20031;-85
2021/11/04 11:12:04;;;;;;;4.50;4.30;;;12.70;73.00;;;;;;4972636;28;20046;-85
2021/11/04 11:14:33;;;;;;;;;;;12.70;72.90;;;;;;4970975;28;20065;-86
2021/11/04 11:17:00;;;;;;;4.53;4.32;;;12.80;72.70;;;;;;4968224;28;19914;-85
2021/11/04 11:19:38;;;;;;;4.68;4.47;;;12.90;72.40;;;;;;4970065;28;20029;-86
2021/11/04 11:22:06;;;;;;;4.72;4.53;;;13.00;72.30;;;;;;4972734;28;20042;-86
2021/11/04 11:24:37;;;;;;;5.00;4.80;;;13.00;72.10;;;;;;4952859;28;20066;-86
2021/11/04 11:27:05;;;;;;;4.63;4.43;;;13.00;72.20;;;;;;4968005;28;20038;-84
2021/11/04 11:29:51;;;;;;;4.40;4.20;;;13.00;72.20;;;;;;4967510;28;20043;-84
2021/11/04 11:32:28;;;;;;;4.70;4.50;;;13.00;72.20;;;;;;4969471;28;20512;-85
2021/11/04 11:35:10;;;;;;;4.80;4.60;;;13.00;72.00;;;;;;4955592;28;20047;-84
2021/11/04 11:37:36;;;;;;;4.75;4.55;;;13.10;71.90;;;;;;4966594;28;20031;-83
2021/11/04 11:40:13;;;;;;;4.70;4.50;;;13.20;71.80;;;;;;4972166;28;20042;-83
2021/11/04 11:42:58;;;;;;;4.60;4.40;;;13.30;71.60;;;;;;4971208;28;20038;-83
2021/11/04 11:45:24;;;;;;;4.55;4.35;;;13.30;71.40;;;;;;4956291;28;20365;-83
2021/11/04 11:47:50;;;;;;;5.30;5.00;;;13.30;71.30;;;;;;4974772;28;20044;-83
2021/11/04 11:50:41;;;;;;;4.75;4.55;;;13.30;71.40;;;;;;4970273;28;20476;-83
2021/11/04 11:53:24;;;;;;;4.80;4.60;;;13.30;71.40;;;;;;4968107;28;20511;-84
2021/11/04 11:55:54;;;;;;;4.78;4.57;;;13.30;71.50;;;;;;4970290;28;20416;-83
2021/11/04 11:58:33;;;;;;;5.30;5.00;;;13.30;71.40;;;;;;4967052;28;20034;-83
2021/11/04 12:01:05;;;;;;;4.70;4.50;;;13.30;71.50;;;;;;4967146;28;20035;-84
2021/11/04 12:03:31;;;;;;;4.57;4.38;;;13.20;71.30;;;;;;4969037;28;20035;-84
2021/11/04 12:06:00;;;;;;;4.28;4.07;;;13.30;71.40;;;;;;4971200;28;20035;-85
2021/11/04 12:08:26;;;;;;;4.70;4.50;;;13.50;71.30;;;;;;4968644;28;20031;-83
2021/11/04 12:10:52;;;;;;;5.05;4.85;;;13.60;71.00;;;;;;4965417;28;20070;-84
2021/11/04 12:13:46;;;;;;;4.85;4.65;;;13.70;70.70;;;;;;4978065;28;20053;-84
2021/11/04 12:16:20;;;;;;;4.93;4.72;;;13.70;70.50;;;;;;4973917;28;20046;-83
2021/11/04 12:18:54;;;;;;;5.00;4.80;;;13.60;70.70;;;;;;4973619;28;20035;-84
2021/11/04 12:21:26;;;;;;;5.13;4.93;;;13.50;70.70;;;;;;4955937;28;20043;-83
2021/11/04 12:23:55;;;;;;;5.15;4.95;;;13.40;70.80;;;;;;4975044;28;20043;-84
2021/11/04 12:26:34;;;;;;;5.30;5.10;;;13.30;70.90;;;;;;4973874;28;20046;-83
2021/11/04 12:29:01;;;;;;;4.88;4.68;;;13.20;71.00;;;;;;4970799;28;20031;-81
2021/11/04 12:31:28;;;;;;;5.20;5.00;;;13.10;71.10;;;;;;4969856;28;20038;-79
2021/11/04 12:34:01;;;;;;;5.10;4.90;;;13.10;71.10;;;;;;4971089;28;20029;-79
2021/11/04 12:36:40;;;;;;;5.18;4.97;;;13.10;71.10;;;;;;4972440;28;20038;-80
2021/11/04 12:39:07;;;;;;;5.05;4.85;;;13.20;70.90;;;;;;4974464;28;20468;-80
2021/11/04 12:41:34;;;;;;;4.82;4.63;;;13.20;70.70;;;;;;4974837;28;20035;-80
2021/11/04 12:44:05;;;;;;;5.22;5.03;;;13.30;70.50;;;;;;4971989;28;20034;-79
2021/11/04 12:46:32;;;;;;;5.25;5.05;;;13.40;70.50;;;;;;4972714;28;20043;-79
2021/11/04 12:49:00;;;;;;;5.43;5.22;;;13.40;70.30;;;;;;4968132;28;20031;-80
2021/11/04 12:51:46;;;;;;;5.75;5.47;;;13.50;70.30;;;;;;4973415;28;20539;-80
2021/11/04 12:54:14;;;;;;;5.18;4.97;;;13.50;70.20;;;;;;4971204;28;20046;-80
2021/11/04 12:56:49;;;;;;;4.88;4.68;;;13.60;70.00;;;;;;4986182;28;20030;-79
2021/11/04 12:59:37;;;;;;;5.32;5.13;;;13.70;69.80;;;;;;4970109;28;20062;-79